Pagina principale
METAR-TAF:

METAR-TAF

Aeroporti :

Salerno, Italia

Aeroporto di Salerno-Costa d'Amalfi

latitudine: 40-37N, longitudine: 014-55E, altezza: 40 m

Osservazione

Il bollettino è stato emesso 45 minuti fa, alle 08:50 UTC
Vento 10 kt da sud-ovest
Temperature 25°C
Umidità 36%
Pressione 1018 hPa
Visibilità 10 km o più
nessuna nube inferiore a 1500 m e nessun cumulonembo

METAR: LIRI 290850Z 22010KT CAVOK 25/09 Q1018

Ora: 11:35 (09:35 UTC)


TAF: mancante

Osservazioni e previsioni meteorologiche di più di 4000 aeroporti (messaggi METAR e TAF).

Le stazioni disponibili sono rappresentate dai dischi gialli e rossi sulla carta.

Puntare il mouse per vedere il nome della stazione.

Clicca sopra per visualizzare le osservazioni e previsioni meteorologiche.

Per cambiare la mappa : fare clic sui pulsanti verdi con una croce nera per ingrandire, il pulsante verde con un trattino per diminuire, o sulla freccia verde per le mappe adiacenti.


METAR-TAF: